Tropical Cyclones
[Index]
Main Index Home Page Stock Weather Photos Extreme Storms Discussion Storm News and Storm Chasing Reports Tropical Cyclones / Hurricanes / Typhoons Weather Data and Links Wild Fires / Bushfires Weather Observation Techniques Weather Picture Catalogue Tornado Pictures and Reports Stock Video Footage and DVDs for sale
Season 2014-2015 Tropical Cyclone HALIBA Track Map
Season 2014-2015 Summaries (Operational Data): [AU] [SIO] [SPAC] [SH]
<<- Previous TC | 2014-2015 Season | Next TC ->>

click for intensity scale information  Lat/long Grid: Show Hide

 Date Labels: Show Hide

Operational Tropical Cyclone Data : JTWC Advisories

Name: HALIBA
Number: 1516

04 Mar 2015 12:00 UTC to 16 Mar 2015 18:00 UTC

    date/time    lat    long     hPa   cat  kts
2015-03-04 12   12.9    50.8    1010         15          
2015-03-04 18   13.6    51.2    1010         15          
2015-03-05 00   14.3    51.6    1010         15          
2015-03-05 06   15.0    52.0    1010         15          
2015-03-05 12   15.5    52.2    1010         15          
2015-03-05 18   15.9    52.3    1010         15          
2015-03-06 00   16.3    52.3    1007         20          
2015-03-06 06   16.5    51.8    1004         25          
2015-03-06 12   16.9    51.3    1004         25          
2015-03-06 18   17.2    50.9    1004         25          
2015-03-07 00   17.6    50.2    1004         25          
2015-03-07 06   18.4    49.6    1004         25          
2015-03-07 12   18.9    49.5    1004         25          
2015-03-07 18   19.1    49.7    1004         25          
2015-03-08 00   19.2    50.0    1004         25          
2015-03-08 06   19.3    50.6    1000         30          
2015-03-08 12   19.7    51.6    1000         30          
2015-03-08 18   20.4    52.6     996    1    35          
2015-03-09 00   20.9    53.4     993    1    40          
2015-03-09 06   21.3    53.4     993    1    40          
2015-03-09 12   21.9    55.0     993    1    40          
2015-03-09 18   22.3    55.5     993    1    40          
2015-03-10 00   23.0    55.6     996    1    35          
2015-03-10 06   23.7    55.3    1000         30          
2015-03-10 12   24.4    54.8    1004         25          
2015-03-10 18   24.4    54.4    1004         25          
2015-03-11 00   24.7    54.0    1004         25          
2015-03-11 06   24.8    53.6    1004         25          
2015-03-11 12   25.2    55.7     998                     
2015-03-11 18   25.5    57.0     999                     
2015-03-12 00   26.9    57.9     999                     
2015-03-12 06   27.4    59.6     998                     
2015-03-12 12   28.4    61.8     995                     
2015-03-12 18   29.5    63.4     997                     
2015-03-13 00   30.0    64.9     993                     
2015-03-13 06   30.0    66.3     993                     
2015-03-13 12   29.9    67.8     993                     
2015-03-13 18   29.9    70.0     998                     
2015-03-14 00   29.9    72.8     999                     
2015-03-14 06   32.6    78.6    1001                     
2015-03-14 12   34.4    80.5     998                     
2015-03-14 18   35.1    82.3     997                     
2015-03-15 00   35.3    83.5     998                     
2015-03-15 06   35.2    83.9     999                     
2015-03-15 12   35.3    87.0     998                     
2015-03-15 18   35.2    89.9    1000                     
2015-03-16 00   35.3    93.5    1000                     
2015-03-16 06   35.9    97.7    1001                     
2015-03-16 12   37.1   103.0    1001                     
2015-03-16 18   37.6   107.6    1001                     
Winds are 10-min average.

Tropical cyclone tracks developed by Michael Bath using operational warnings and advisories and Google Maps.


[Australian Severe Weather index] [Copyright Notice] [Email Contacts] [Search This Site] [Privacy Policy]
Document: tropical_cyclone_haliba.htm Updated: 2 May 2017